Topsail Beach, North Carolina
Current Conditions -  °F | °C
As of 8:56 AM on Friday 28 Nov 2014 (Local Time) from KNCA Reporting Station
Clear Clear  
Wind Chill: -2°   Ceiling: Unl
Heat Index:   Visibility: 10mi
Dew Point: -4°   Wind: 15mph
Humidity: 62%   Direction: 340°NNW
Pressure: 30.34"   Gusts: NA
Location:  34.4895°N, 77.514°W
Report Text: KNCA 281356Z AUTO 34013KT 10SM CLR 03/M04 A3034 RMK AO2 SLP276 T00281039
Loading
Personal Weather Stations






























Interactive Weather Map New forecast layout! Learn more

10-Day Weather Forecast

Advertisements
Track Severe Weather on mobile